createdAt,value
2018-03-01T00:00:28.405Z,17.80
2018-03-01T00:01:28.481Z,18.40
2018-03-01T00:02:28.568Z,17.90
2018-03-01T00:03:28.659Z,18.00
2018-03-01T00:04:28.740Z,18.40
2018-03-01T00:05:28.826Z,18.20
2018-03-01T00:06:28.910Z,17.90
2018-03-01T00:07:28.993Z,19.00
2018-03-01T00:08:29.077Z,17.80
2018-03-01T00:09:29.166Z,18.00
2018-03-01T00:10:29.250Z,18.50
2018-03-01T00:11:29.341Z,18.20
2018-03-01T00:12:29.426Z,18.10
2018-03-01T00:13:29.511Z,18.20
2018-03-01T00:14:29.597Z,17.60
2018-03-01T00:15:29.677Z,18.20
2018-03-01T00:16:29.763Z,18.00
2018-03-01T00:17:29.850Z,16.90
2018-03-01T00:18:29.936Z,18.00
2018-03-01T00:19:30.018Z,17.30
2018-03-01T00:20:30.101Z,17.80
2018-03-01T00:21:30.187Z,17.70
2018-03-01T00:22:30.274Z,18.70
2018-03-01T00:23:30.346Z,18.20
2018-03-01T00:24:30.432Z,17.70
2018-03-01T00:25:30.511Z,18.70
2018-03-01T00:26:30.593Z,18.50
2018-03-01T00:27:30.730Z,17.50
2018-03-01T00:28:30.768Z,17.40
2018-03-01T00:29:30.842Z,18.10
2018-03-01T00:30:30.937Z,18.90
2018-03-01T00:31:31.021Z,17.30
2018-03-01T00:32:31.107Z,18.10
2018-03-01T00:33:31.187Z,17.40
2018-03-01T00:34:31.284Z,18.00
2018-03-01T00:35:31.370Z,18.00
2018-03-01T00:36:31.462Z,18.00
2018-03-01T00:37:31.547Z,18.90
2018-03-01T00:38:31.631Z,18.60
2018-03-01T00:39:31.716Z,18.60
2018-03-01T00:40:31.802Z,18.30
2018-03-01T00:41:31.881Z,18.60
2018-03-01T00:42:31.969Z,18.40
2018-03-01T00:43:32.051Z,18.40
2018-03-01T00:44:32.132Z,18.30
2018-03-01T00:45:32.224Z,18.40
2018-03-01T00:46:32.296Z,18.90
2018-03-01T00:47:32.383Z,18.50
2018-03-01T00:48:32.464Z,17.90
2018-03-01T00:49:32.546Z,18.40
2018-03-01T00:50:32.630Z,19.00
2018-03-01T00:51:32.723Z,18.70
2018-03-01T00:52:32.810Z,19.10
2018-03-01T00:53:32.892Z,18.50
2018-03-01T00:54:32.973Z,19.20
2018-03-01T00:55:33.069Z,18.20
2018-03-01T00:56:33.152Z,20.00
2018-03-01T00:57:33.235Z,18.30
2018-03-01T00:58:33.320Z,19.40
2018-03-01T00:59:33.401Z,17.80
2018-03-01T01:00:33.484Z,18.80
2018-03-01T01:01:33.569Z,17.90
2018-03-01T01:02:33.652Z,18.50
2018-03-01T01:03:33.738Z,18.70
2018-03-01T01:04:33.825Z,19.00
2018-03-01T01:05:33.905Z,18.00
2018-03-01T01:06:33.994Z,19.10
2018-03-01T01:07:34.069Z,19.00
2018-03-01T01:08:34.152Z,18.90
2018-03-01T01:09:34.247Z,17.50
2018-03-01T01:10:34.333Z,19.20
2018-03-01T01:11:34.415Z,19.20
2018-03-01T01:12:34.497Z,17.90
2018-03-01T01:13:34.580Z,18.70
2018-03-01T01:14:34.662Z,18.90
2018-03-01T01:15:34.754Z,18.30
2018-03-01T01:16:34.840Z,18.30
2018-03-01T01:17:34.924Z,18.80
2018-03-01T01:18:35.003Z,18.50
2018-03-01T01:19:35.085Z,19.30
2018-03-01T01:20:35.166Z,19.10
2018-03-01T01:21:35.266Z,18.80
2018-03-01T01:22:35.347Z,19.00
2018-03-01T01:23:35.432Z,19.10
2018-03-01T01:24:35.518Z,19.00
2018-03-01T01:25:35.603Z,19.00
2018-03-01T01:26:35.681Z,19.10
2018-03-01T01:27:35.776Z,18.80
2018-03-01T01:28:35.862Z,19.10
2018-03-01T01:29:35.944Z,18.60
2018-03-01T01:30:36.033Z,19.20
2018-03-01T01:31:36.108Z,18.10
2018-03-01T01:32:36.194Z,19.10
2018-03-01T01:33:36.285Z,18.70
2018-03-01T01:34:36.370Z,19.00
2018-03-01T01:35:36.451Z,18.90
2018-03-01T01:36:36.538Z,19.00
2018-03-01T01:37:36.619Z,18.50
2018-03-01T01:38:36.703Z,18.90
2018-03-01T01:39:36.791Z,18.80
2018-03-01T01:40:36.878Z,19.60
2018-03-01T01:41:36.955Z,19.40
2018-03-01T01:42:37.054Z,19.00
2018-03-01T01:43:37.123Z,18.70
2018-03-01T01:44:37.205Z,19.70
2018-03-01T01:45:37.292Z,17.70
2018-03-01T01:46:37.387Z,19.40
2018-03-01T01:47:37.470Z,18.90
2018-03-01T01:48:37.552Z,19.70
2018-03-01T01:49:37.640Z,18.60
2018-03-01T01:50:37.724Z,19.30
2018-03-01T01:51:37.812Z,19.60
2018-03-01T01:52:37.897Z,20.00
2018-03-01T01:53:37.979Z,19.60
2018-03-01T01:54:38.060Z,18.50
2018-03-01T01:55:38.148Z,18.90
2018-03-01T01:56:38.235Z,19.10
2018-03-01T01:57:38.319Z,19.90
2018-03-01T01:58:38.402Z,19.10
2018-03-01T01:59:38.510Z,20.30
2018-03-01T02:00:38.569Z,19.00
2018-03-01T02:01:38.650Z,19.60
2018-03-01T02:02:38.737Z,20.00
2018-03-01T02:03:38.829Z,19.40
2018-03-01T02:04:38.909Z,19.70
2018-03-01T02:05:38.993Z,19.40
2018-03-01T02:06:39.077Z,19.60
2018-03-01T02:07:39.160Z,19.40
2018-03-01T02:08:39.243Z,19.80
2018-03-01T02:09:39.333Z,20.10
2018-03-01T02:10:39.416Z,20.00
2018-03-01T02:11:39.505Z,19.60
2018-03-01T02:12:39.582Z,19.40
2018-03-01T02:13:39.665Z,19.10
2018-03-01T02:14:39.752Z,18.90
2018-03-01T02:15:39.844Z,19.40
2018-03-01T02:16:39.924Z,19.70
2018-03-01T02:17:40.007Z,19.00
2018-03-01T02:18:40.089Z,20.20
2018-03-01T02:19:40.174Z,19.10
2018-03-01T02:20:40.259Z,20.20
2018-03-01T02:21:40.365Z,19.90
2018-03-01T02:22:40.434Z,18.70
2018-03-01T02:23:40.518Z,20.90
2018-03-01T02:24:40.607Z,20.20
2018-03-01T02:25:40.699Z,19.50
2018-03-01T02:26:40.791Z,20.60
2018-03-01T02:27:40.877Z,21.10
2018-03-01T02:28:40.958Z,20.00
2018-03-01T02:29:41.043Z,20.00
2018-03-01T02:30:41.130Z,20.10
2018-03-01T02:31:41.215Z,21.30
2018-03-01T02:32:41.295Z,20.80
2018-03-01T02:33:41.376Z,20.40
2018-03-01T02:34:41.461Z,19.70
2018-03-01T02:35:41.548Z,20.50
2018-03-01T02:36:41.639Z,20.60
2018-03-01T02:37:41.713Z,20.00
2018-03-01T02:38:41.800Z,20.40
2018-03-01T02:39:41.879Z,20.50
2018-03-01T02:40:41.962Z,20.70
2018-03-01T02:41:42.045Z,19.90
2018-03-01T02:42:42.126Z,20.20
2018-03-01T02:43:42.207Z,20.60
2018-03-01T02:44:42.291Z,21.50
2018-03-01T02:45:42.383Z,21.60
2018-03-01T02:46:42.475Z,20.50
2018-03-01T02:47:42.551Z,20.50
2018-03-01T02:48:42.634Z,19.80
2018-03-01T02:49:42.721Z,20.70
2018-03-01T02:50:42.802Z,20.50
2018-03-01T02:51:42.887Z,20.60
2018-03-01T02:52:42.971Z,20.30
2018-03-01T02:53:43.054Z,20.90
2018-03-01T02:54:43.138Z,20.90
2018-03-01T02:55:43.224Z,20.60
2018-03-01T02:56:43.310Z,21.00
2018-03-01T02:57:43.399Z,20.70
2018-03-01T02:58:43.489Z,21.00
2018-03-01T02:59:43.568Z,20.60
2018-03-01T03:00:43.651Z,20.20
2018-03-01T03:01:43.733Z,21.00
2018-03-01T03:02:43.815Z,21.30
2018-03-01T03:03:43.917Z,20.80
2018-03-01T03:04:43.999Z,20.80
2018-03-01T03:05:44.084Z,21.50
2018-03-01T03:06:44.165Z,20.70
2018-03-01T03:07:44.250Z,20.90
2018-03-01T03:08:44.332Z,21.10
2018-03-01T03:09:44.423Z,21.20
2018-03-01T03:10:44.506Z,20.60
2018-03-01T03:11:44.589Z,20.30
2018-03-01T03:12:44.671Z,21.00
2018-03-01T03:13:44.753Z,21.50
2018-03-01T03:14:44.842Z,22.30
2018-03-01T03:15:44.928Z,21.20
2018-03-01T03:16:45.009Z,21.20
2018-03-01T03:17:45.096Z,20.80
2018-03-01T03:18:45.186Z,21.50
2018-03-01T03:19:45.271Z,20.20
2018-03-01T03:20:45.353Z,21.30
2018-03-01T03:21:45.439Z,20.60
2018-03-01T03:22:45.526Z,20.80
2018-03-01T03:23:45.612Z,21.30
2018-03-01T03:24:45.699Z,20.50
2018-03-01T03:25:45.780Z,20.60
2018-03-01T03:26:45.870Z,21.10
2018-03-01T03:27:45.954Z,20.80
2018-03-01T03:28:46.038Z,20.70
2018-03-01T03:29:46.124Z,20.50
2018-03-01T03:30:46.210Z,20.30
2018-03-01T03:31:46.292Z,21.30
2018-03-01T03:32:46.375Z,20.30
2018-03-01T03:33:46.468Z,21.40
2018-03-01T03:34:46.551Z,20.90
2018-03-01T03:35:46.634Z,20.50
2018-03-01T03:36:46.720Z,21.00
2018-03-01T03:37:46.809Z,20.20
2018-03-01T03:38:46.890Z,21.70
2018-03-01T03:39:46.989Z,21.70
2018-03-01T03:40:47.066Z,21.00
2018-03-01T03:41:47.159Z,21.60
2018-03-01T03:42:47.235Z,20.10
2018-03-01T03:43:47.317Z,21.30
2018-03-01T03:44:47.401Z,21.60
2018-03-01T03:45:47.483Z,21.20
2018-03-01T03:46:47.569Z,21.50
2018-03-01T03:47:47.654Z,20.90
2018-03-01T03:48:47.737Z,20.60
2018-03-01T03:49:47.823Z,21.20
2018-03-01T03:50:47.909Z,21.20
2018-03-01T03:51:47.991Z,20.80
2018-03-01T03:52:48.078Z,21.00
2018-03-01T03:53:48.163Z,21.00
2018-03-01T03:54:48.244Z,20.50
2018-03-01T03:55:48.326Z,21.00
2018-03-01T03:56:48.410Z,21.20
2018-03-01T03:57:48.498Z,21.50
2018-03-01T03:58:48.581Z,20.80
2018-03-01T03:59:48.661Z,21.40
2018-03-01T04:00:48.743Z,20.90
2018-03-01T04:01:48.829Z,21.40
2018-03-01T04:02:48.918Z,21.70
2018-03-01T04:03:49.000Z,20.10
2018-03-01T04:04:49.092Z,22.50
2018-03-01T04:05:49.178Z,21.20
2018-03-01T04:06:49.262Z,21.10
2018-03-01T04:07:49.350Z,20.80
2018-03-01T04:08:49.436Z,22.00
2018-03-01T04:09:49.521Z,20.50
2018-03-01T04:10:49.604Z,21.30
2018-03-01T04:11:49.686Z,20.50
2018-03-01T04:12:49.771Z,21.30
2018-03-01T04:13:49.855Z,21.60
2018-03-01T04:14:49.938Z,21.40
2018-03-01T04:15:50.025Z,21.60
2018-03-01T04:16:50.109Z,21.70
2018-03-01T04:17:50.199Z,21.30
2018-03-01T04:18:50.289Z,22.00
2018-03-01T04:19:50.367Z,21.40
2018-03-01T04:20:50.447Z,21.40
2018-03-01T04:21:50.535Z,21.30
2018-03-01T04:22:50.658Z,21.90
2018-03-01T04:23:50.702Z,21.80
2018-03-01T04:24:50.788Z,22.40
2018-03-01T04:25:50.883Z,21.00
2018-03-01T04:26:50.969Z,20.10
2018-03-01T04:27:51.084Z,21.00
2018-03-01T04:28:51.135Z,20.80
2018-03-01T04:29:51.220Z,21.10
2018-03-01T04:30:51.299Z,21.10
2018-03-01T04:31:51.384Z,21.10
2018-03-01T04:32:51.466Z,21.20
2018-03-01T04:33:51.553Z,22.20
2018-03-01T04:34:51.640Z,20.90
2018-03-01T04:35:51.714Z,21.80
2018-03-01T04:36:51.786Z,21.80
2018-03-01T04:37:51.876Z,20.50
2018-03-01T04:38:51.959Z,21.60
2018-03-01T04:39:52.041Z,20.60
2018-03-01T04:40:52.127Z,21.40
2018-03-01T04:41:52.215Z,22.60
2018-03-01T04:42:52.297Z,22.00
2018-03-01T04:43:52.377Z,21.70
2018-03-01T04:44:52.468Z,21.50
2018-03-01T04:45:52.553Z,21.50
2018-03-01T04:46:52.636Z,21.00
2018-03-01T04:47:52.716Z,21.30
2018-03-01T04:48:52.803Z,22.20
2018-03-01T04:49:52.892Z,21.30
2018-03-01T04:50:52.976Z,21.80
2018-03-01T04:51:53.057Z,21.50
2018-03-01T04:52:53.140Z,21.90
2018-03-01T04:53:53.226Z,22.70
2018-03-01T04:54:53.309Z,22.10
2018-03-01T04:55:53.394Z,21.70
2018-03-01T04:56:53.478Z,21.20
2018-03-01T04:57:53.561Z,22.40
2018-03-01T04:58:53.649Z,21.60
2018-03-01T04:59:53.733Z,22.30
2018-03-01T05:00:53.817Z,21.80
2018-03-01T05:01:53.897Z,21.80
2018-03-01T05:02:53.984Z,22.00
2018-03-01T05:03:54.070Z,22.00
2018-03-01T05:04:54.162Z,21.50
2018-03-01T05:05:54.247Z,22.00
2018-03-01T05:06:54.334Z,22.90
2018-03-01T05:07:54.419Z,21.70
2018-03-01T05:08:54.500Z,22.00
2018-03-01T05:09:54.584Z,21.50
2018-03-01T05:10:54.688Z,22.40
2018-03-01T05:11:54.760Z,22.60
2018-03-01T05:12:54.839Z,21.70
2018-03-01T05:13:54.924Z,21.60
2018-03-01T05:14:55.008Z,21.90
2018-03-01T05:15:55.096Z,21.70
2018-03-01T05:16:55.175Z,21.60
2018-03-01T05:17:55.260Z,22.00
2018-03-01T05:18:55.349Z,22.30
2018-03-01T05:19:55.433Z,23.20
2018-03-01T05:20:55.514Z,21.70
2018-03-01T05:21:55.594Z,22.40
2018-03-01T05:22:55.683Z,22.10
2018-03-01T05:23:55.768Z,22.00
2018-03-01T05:24:55.861Z,22.30
2018-03-01T05:25:55.945Z,21.80
2018-03-01T05:26:56.029Z,22.40
2018-03-01T05:27:56.113Z,22.20
2018-03-01T05:28:56.198Z,22.50
2018-03-01T05:29:56.282Z,22.30
2018-03-01T05:30:56.366Z,21.70
2018-03-01T05:31:56.450Z,22.70
2018-03-01T05:32:56.533Z,22.90
2018-03-01T05:33:56.619Z,21.40
2018-03-01T05:34:56.701Z,23.80
2018-03-01T05:35:56.785Z,21.40
2018-03-01T05:36:56.869Z,22.60
2018-03-01T05:37:56.957Z,22.80
2018-03-01T05:38:57.038Z,22.10
2018-03-01T05:39:57.121Z,22.70
2018-03-01T05:40:57.209Z,22.90
2018-03-01T05:41:57.292Z,23.00
2018-03-01T05:42:57.375Z,22.60
2018-03-01T05:43:57.460Z,23.00
2018-03-01T05:44:57.544Z,24.40
2018-03-01T05:45:57.632Z,24.00
2018-03-01T05:46:57.759Z,24.40
2018-03-01T05:47:57.797Z,24.20
2018-03-01T05:48:57.882Z,23.80
2018-03-01T05:49:57.972Z,22.70
2018-03-01T05:50:58.055Z,22.10
2018-03-01T05:51:58.178Z,22.50
2018-03-01T05:52:58.223Z,22.50
2018-03-01T05:53:58.312Z,21.40
2018-03-01T05:54:58.423Z,22.50
2018-03-01T05:55:58.483Z,22.70
2018-03-01T05:56:58.562Z,23.70
2018-03-01T05:57:58.648Z,22.30
2018-03-01T05:58:58.734Z,22.70
2018-03-01T05:59:58.825Z,22.30
2018-03-01T06:00:58.895Z,22.60
2018-03-01T06:01:58.980Z,23.20
2018-03-01T06:02:59.065Z,22.70
2018-03-01T06:03:59.149Z,22.60
2018-03-01T06:04:59.235Z,22.70
2018-03-01T06:05:59.318Z,23.30
2018-03-01T06:06:59.407Z,23.00
2018-03-01T06:07:59.486Z,22.20
2018-03-01T06:08:59.567Z,22.60
2018-03-01T06:09:59.652Z,22.60
2018-03-01T06:10:59.738Z,23.00
2018-03-01T06:11:59.825Z,23.00
2018-03-01T06:12:59.908Z,22.30
2018-03-01T06:13:59.992Z,22.40
2018-03-01T06:15:00.081Z,21.90
2018-03-01T06:16:00.159Z,23.60
2018-03-01T06:17:00.259Z,22.90
2018-03-01T06:18:00.338Z,23.00
2018-03-01T06:19:00.465Z,23.90
2018-03-01T06:20:00.515Z,22.70
2018-03-01T06:21:00.597Z,23.30
2018-03-01T06:22:00.683Z,24.10
2018-03-01T06:23:00.774Z,24.00
2018-03-01T06:24:00.857Z,23.20
2018-03-01T06:25:00.940Z,23.00
2018-03-01T06:26:01.028Z,23.20
2018-03-01T06:27:01.114Z,23.60
2018-03-01T06:28:01.230Z,24.60
2018-03-01T06:29:01.288Z,23.70
2018-03-01T06:30:01.375Z,24.40
2018-03-01T06:31:01.453Z,24.00
2018-03-01T06:32:01.544Z,22.60
2018-03-01T06:33:01.625Z,23.20
2018-03-01T06:34:01.711Z,23.70
2018-03-01T06:35:01.796Z,23.20
2018-03-01T06:36:01.878Z,23.70
2018-03-01T06:37:01.986Z,23.80
2018-03-01T06:38:02.048Z,24.40
2018-03-01T06:39:02.130Z,23.10
2018-03-01T06:40:02.214Z,26.60
2018-03-01T06:41:02.302Z,25.50
2018-03-01T06:42:02.509Z,24.70
2018-03-01T06:43:02.468Z,23.90
2018-03-01T06:44:02.554Z,24.40
2018-03-01T06:45:02.641Z,24.50
2018-03-01T06:46:02.727Z,24.20
2018-03-01T06:47:02.813Z,24.20
2018-03-01T06:48:02.899Z,24.60
2018-03-01T06:49:02.985Z,23.40
2018-03-01T06:50:03.064Z,23.90
2018-03-01T06:51:03.147Z,24.00
2018-03-01T06:52:03.229Z,24.50
2018-03-01T06:53:03.314Z,25.30
2018-03-01T06:54:03.402Z,25.30
2018-03-01T06:55:03.482Z,25.00
2018-03-01T06:56:03.567Z,23.90
2018-03-01T06:57:03.654Z,23.50
2018-03-01T06:58:03.740Z,23.10
2018-03-01T06:59:03.867Z,23.40
2018-03-01T07:00:03.912Z,23.90
2018-03-01T07:01:03.999Z,24.30
2018-03-01T07:02:04.083Z,23.30
2018-03-01T07:03:04.163Z,24.20
2018-03-01T07:04:04.249Z,23.00
2018-03-01T07:05:04.337Z,24.20
2018-03-01T07:06:04.419Z,22.60
2018-03-01T07:07:04.507Z,24.00
2018-03-01T07:08:04.590Z,23.00
2018-03-01T07:09:04.672Z,24.40
2018-03-01T07:10:04.753Z,23.50
2018-03-01T07:11:04.857Z,23.00
2018-03-01T07:12:04.926Z,23.70
2018-03-01T07:13:05.015Z,23.30
2018-03-01T07:14:05.094Z,23.60
2018-03-01T07:15:05.181Z,23.60
2018-03-01T07:16:05.267Z,24.50
2018-03-01T07:17:05.348Z,23.80
2018-03-01T07:18:05.430Z,24.10
2018-03-01T07:19:05.516Z,23.40
2018-03-01T07:20:05.602Z,23.40
2018-03-01T07:21:05.688Z,23.80
2018-03-01T07:22:05.774Z,23.80
2018-03-01T07:23:05.862Z,22.90
2018-03-01T07:24:05.946Z,22.80
2018-03-01T07:25:06.037Z,24.10
2018-03-01T07:26:06.125Z,22.60
2018-03-01T07:27:06.207Z,24.70
2018-03-01T07:28:06.309Z,23.10
2018-03-01T07:29:06.384Z,23.50
2018-03-01T07:30:06.459Z,24.00
2018-03-01T07:31:06.536Z,24.20
2018-03-01T07:32:06.619Z,24.10
2018-03-01T07:33:06.707Z,23.60
2018-03-01T07:34:06.789Z,23.60
2018-03-01T07:35:06.874Z,24.00
2018-03-01T07:36:06.956Z,23.10
2018-03-01T07:37:07.044Z,23.10
2018-03-01T07:38:07.128Z,23.60
2018-03-01T07:39:07.213Z,23.70
2018-03-01T07:40:07.298Z,24.30
2018-03-01T07:41:07.386Z,25.10
2018-03-01T07:42:07.465Z,22.50
2018-03-01T07:43:07.550Z,22.50
2018-03-01T07:44:07.635Z,24.10
2018-03-01T07:45:07.717Z,24.50
2018-03-01T07:46:07.804Z,23.40
2018-03-01T07:47:07.891Z,23.70
2018-03-01T07:48:07.972Z,23.60
2018-03-01T07:49:08.057Z,24.10
2018-03-01T07:50:08.146Z,22.90
2018-03-01T07:51:08.228Z,24.20
2018-03-01T07:52:08.313Z,24.10
2018-03-01T07:53:08.397Z,26.30
2018-03-01T07:54:08.485Z,24.40
2018-03-01T07:55:08.567Z,24.00
2018-03-01T07:56:08.654Z,23.80
2018-03-01T07:57:08.736Z,24.10
2018-03-01T07:58:08.828Z,22.20
2018-03-01T07:59:08.908Z,25.80
2018-03-01T08:00:08.996Z,24.50
2018-03-01T08:01:09.079Z,27.70
2018-03-01T08:02:09.161Z,31.10
2018-03-01T08:03:09.250Z,22.70
2018-03-01T08:04:09.338Z,24.00
2018-03-01T08:05:09.560Z,23.90
2018-03-01T08:06:09.515Z,23.50
2018-03-01T08:07:09.598Z,23.30
2018-03-01T08:08:09.683Z,23.90
2018-03-01T08:09:09.766Z,23.70
2018-03-01T08:10:09.853Z,23.90
2018-03-01T08:11:09.933Z,24.40
2018-03-01T08:12:10.015Z,24.30
2018-03-01T08:13:10.098Z,23.20
2018-03-01T08:14:10.185Z,23.50
2018-03-01T08:15:10.270Z,24.00
2018-03-01T08:16:10.353Z,24.50
2018-03-01T08:17:10.437Z,23.00
2018-03-01T08:18:10.518Z,24.20
2018-03-01T08:19:10.609Z,23.40
2018-03-01T08:20:10.697Z,22.00
2018-03-01T08:21:10.782Z,23.10
2018-03-01T08:22:10.867Z,23.90
2018-03-01T08:23:10.955Z,23.10
2018-03-01T08:24:11.039Z,22.70
2018-03-01T08:25:11.122Z,23.40
2018-03-01T08:26:11.213Z,23.70
2018-03-01T08:27:11.295Z,23.20
2018-03-01T08:28:11.385Z,24.20
2018-03-01T08:29:11.458Z,23.40
2018-03-01T08:30:11.541Z,23.40
2018-03-01T08:31:11.625Z,24.30
2018-03-01T08:32:11.706Z,23.30
2018-03-01T08:33:11.791Z,23.00
2018-03-01T08:34:11.882Z,21.40
2018-03-01T08:35:11.964Z,22.70
2018-03-01T08:36:12.048Z,23.10
2018-03-01T08:37:12.134Z,22.80
2018-03-01T08:38:12.218Z,22.40
2018-03-01T08:39:12.308Z,22.10
2018-03-01T08:40:12.395Z,24.40
2018-03-01T08:41:12.493Z,23.80
2018-03-01T08:42:12.553Z,24.00
2018-03-01T08:43:12.633Z,22.80
2018-03-01T08:44:12.720Z,22.80
2018-03-01T08:45:12.806Z,22.90
2018-03-01T08:46:12.899Z,24.70
2018-03-01T08:47:12.973Z,22.70
2018-03-01T08:48:13.056Z,23.80
2018-03-01T08:49:13.142Z,23.40
2018-03-01T08:50:13.227Z,23.00
2018-03-01T08:51:13.310Z,23.60
2018-03-01T08:52:13.399Z,23.40
2018-03-01T08:53:13.510Z,23.90
2018-03-01T08:54:13.571Z,23.10
2018-03-01T08:55:13.652Z,23.30
2018-03-01T08:56:13.740Z,24.30
2018-03-01T08:57:13.823Z,23.80
2018-03-01T08:58:13.910Z,24.60
2018-03-01T08:59:13.995Z,23.50
2018-03-01T09:00:14.079Z,24.00
2018-03-01T09:01:14.156Z,24.50
2018-03-01T09:02:14.242Z,23.80
2018-03-01T09:03:14.329Z,23.90
2018-03-01T09:04:14.420Z,24.30
2018-03-01T09:05:14.501Z,24.00
2018-03-01T09:06:14.586Z,23.40
2018-03-01T09:07:14.672Z,23.60
2018-03-01T09:08:14.755Z,23.50
2018-03-01T09:09:14.841Z,24.00
2018-03-01T09:10:14.932Z,23.60
2018-03-01T09:11:15.019Z,23.70
2018-03-01T09:12:15.108Z,24.40
2018-03-01T09:13:15.197Z,22.70
2018-03-01T09:14:15.285Z,22.90
2018-03-01T09:15:15.374Z,24.00
2018-03-01T09:16:15.458Z,24.60
2018-03-01T09:17:15.540Z,23.00
2018-03-01T09:18:15.628Z,23.60
2018-03-01T09:19:15.718Z,24.70
2018-03-01T09:20:15.810Z,22.60
2018-03-01T09:21:15.897Z,23.90
2018-03-01T09:22:15.993Z,23.60
2018-03-01T09:23:16.084Z,23.60
2018-03-01T09:24:16.172Z,23.60
2018-03-01T09:25:16.264Z,24.40
2018-03-01T09:26:16.348Z,23.30
2018-03-01T09:27:16.438Z,23.70
2018-03-01T09:28:16.543Z,23.90
2018-03-01T09:31:48.660Z,23.70
2018-03-01T09:32:48.743Z,23.20
2018-03-01T09:33:48.828Z,23.70
2018-03-01T09:34:48.916Z,23.00
2018-03-01T09:35:48.999Z,23.10
2018-03-01T09:36:49.100Z,23.30
2018-03-01T09:37:49.169Z,23.30
2018-03-01T09:38:49.257Z,23.10
2018-03-01T09:39:49.340Z,23.40
2018-03-01T09:40:49.427Z,23.40
2018-03-01T09:41:49.513Z,23.30
2018-03-01T09:42:49.605Z,24.00
2018-03-01T09:43:49.684Z,23.20
2018-03-01T09:44:49.772Z,24.10
2018-03-01T09:45:49.855Z,23.20
2018-03-01T09:46:49.937Z,22.80
2018-03-01T09:47:50.025Z,24.20
2018-03-01T09:48:50.113Z,23.10
2018-03-01T09:49:50.198Z,23.10
2018-03-01T09:50:50.287Z,22.80
2018-03-01T09:51:50.375Z,24.60
2018-03-01T09:52:50.460Z,24.20
2018-03-01T09:53:50.542Z,24.30
2018-03-01T09:54:50.632Z,24.20
2018-03-01T09:55:50.720Z,23.40
2018-03-01T09:56:50.796Z,24.40
2018-03-01T09:57:50.901Z,22.40
2018-03-01T09:58:50.987Z,24.20
2018-03-01T09:59:51.075Z,23.20
2018-03-01T10:00:51.161Z,23.70
2018-03-01T10:01:51.246Z,23.50
2018-03-01T10:02:51.328Z,23.20
2018-03-01T10:03:51.422Z,23.20
2018-03-01T10:04:51.508Z,23.90
2018-03-01T10:05:51.603Z,23.50
2018-03-01T10:06:51.677Z,23.10
2018-03-01T10:07:51.764Z,22.90
2018-03-01T10:08:51.842Z,23.30
2018-03-01T10:09:51.923Z,23.20
2018-03-01T10:10:52.021Z,23.00
2018-03-01T10:11:52.109Z,22.60
2018-03-01T10:12:52.188Z,23.30
2018-03-01T10:13:52.283Z,23.10
2018-03-01T10:14:52.350Z,21.20
2018-03-01T10:15:52.453Z,22.70
2018-03-01T10:16:52.537Z,21.30
2018-03-01T10:17:52.621Z,21.90
2018-03-01T10:18:52.706Z,22.90
2018-03-01T10:19:52.792Z,24.00
2018-03-01T10:20:52.879Z,23.00
2018-03-01T10:21:52.968Z,23.30
2018-03-01T10:22:53.055Z,23.10
2018-03-01T10:23:53.143Z,27.30
2018-03-01T10:24:53.231Z,28.10
2018-03-01T10:25:53.315Z,22.60
2018-03-01T10:26:53.395Z,21.70
2018-03-01T10:27:53.483Z,23.30
2018-03-01T10:28:53.568Z,22.40
2018-03-01T10:29:53.656Z,22.60
2018-03-01T10:30:53.746Z,23.00
2018-03-01T10:31:53.838Z,21.60
2018-03-01T10:32:53.947Z,22.10
2018-03-01T10:33:54.028Z,21.70
2018-03-01T10:34:54.115Z,22.20
2018-03-01T10:35:54.203Z,23.40
2018-03-01T10:36:54.288Z,23.80
2018-03-01T10:37:54.373Z,23.00
2018-03-01T10:38:54.460Z,23.00
2018-03-01T10:39:54.552Z,21.80
2018-03-01T10:40:54.637Z,21.80
2018-03-01T10:41:54.723Z,21.70
2018-03-01T10:42:54.813Z,21.60
2018-03-01T10:43:54.896Z,22.80
2018-03-01T10:44:54.998Z,21.90
2018-03-01T10:45:55.071Z,22.60
2018-03-01T10:46:55.157Z,22.50
2018-03-01T10:47:55.248Z,22.40
2018-03-01T10:48:55.332Z,21.60
2018-03-01T10:49:55.420Z,21.60
2018-03-01T10:50:55.505Z,22.00
2018-03-01T10:51:55.590Z,22.30
2018-03-01T10:52:55.675Z,21.90
2018-03-01T10:53:55.771Z,21.30
2018-03-01T10:54:55.849Z,22.20
2018-03-01T10:55:55.938Z,22.60
2018-03-01T10:56:56.026Z,24.00
2018-03-01T10:57:56.103Z,22.00
2018-03-01T10:58:56.192Z,23.30
2018-03-01T10:59:56.279Z,21.30
2018-03-01T11:00:56.365Z,22.40
2018-03-01T11:01:56.457Z,22.60
2018-03-01T11:02:56.543Z,22.00
2018-03-01T11:03:56.628Z,22.40
2018-03-01T11:04:56.725Z,21.50
2018-03-01T11:05:56.800Z,22.50
2018-03-01T11:06:56.888Z,21.60
2018-03-01T11:07:56.969Z,22.20
2018-03-01T11:08:57.059Z,22.60
2018-03-01T11:09:57.147Z,22.20
2018-03-01T11:10:57.232Z,21.70
2018-03-01T11:11:57.318Z,22.10
2018-03-01T11:12:57.407Z,22.20
2018-03-01T11:13:57.495Z,22.40
2018-03-01T11:14:57.580Z,22.70
2018-03-01T11:15:57.668Z,22.80
2018-03-01T11:16:57.757Z,21.00
2018-03-01T11:17:57.842Z,22.40
2018-03-01T11:18:57.933Z,21.30
2018-03-01T11:19:58.018Z,21.40
2018-03-01T11:20:58.107Z,22.30
2018-03-01T11:21:58.217Z,22.00
2018-03-01T11:22:58.301Z,22.20
2018-03-01T11:23:58.390Z,22.50
2018-03-01T11:24:58.475Z,22.30
2018-03-01T11:25:58.563Z,22.40
2018-03-01T11:26:58.652Z,22.70
2018-03-01T11:27:58.743Z,20.90
2018-03-01T11:28:58.838Z,22.00
2018-03-01T11:29:58.926Z,22.30
2018-03-01T11:30:59.034Z,23.00
2018-03-01T11:31:59.091Z,22.60
2018-03-01T11:32:59.180Z,20.70
2018-03-01T11:33:59.265Z,21.40
2018-03-01T11:34:59.357Z,23.00
2018-03-01T11:35:59.444Z,22.80
2018-03-01T11:36:59.528Z,23.10
2018-03-01T11:37:59.642Z,22.80
2018-03-01T11:38:59.718Z,22.00
2018-03-01T11:39:59.809Z,22.60
2018-03-01T11:40:59.898Z,22.90
2018-03-01T11:41:59.987Z,23.30
2018-03-01T11:43:00.070Z,23.10
2018-03-01T11:44:00.160Z,22.00
2018-03-01T11:45:00.246Z,22.00
2018-03-01T11:46:00.330Z,22.10
2018-03-01T11:47:00.420Z,22.80
2018-03-01T11:48:00.508Z,22.60
2018-03-01T11:49:00.591Z,22.40
2018-03-01T11:50:00.684Z,22.70
2018-03-01T11:51:00.772Z,22.40
2018-03-01T11:52:00.865Z,21.80
2018-03-01T11:53:00.953Z,21.90
2018-03-01T11:54:01.035Z,22.20
2018-03-01T11:55:01.116Z,22.00
2018-03-01T11:56:01.200Z,22.90
2018-03-01T11:57:01.382Z,23.10
2018-03-01T11:58:01.383Z,22.00
2018-03-01T11:59:01.470Z,22.00
2018-03-01T12:00:01.556Z,22.80
2018-03-01T12:01:01.631Z,22.80
2018-03-01T12:02:01.718Z,22.20
2018-03-01T12:03:01.809Z,21.70
2018-03-01T12:04:01.935Z,23.10
2018-03-01T12:05:01.981Z,23.90
2018-03-01T12:06:02.082Z,22.50
2018-03-01T12:07:02.280Z,23.90
2018-03-01T12:08:02.239Z,22.60
2018-03-01T12:09:02.325Z,22.90
2018-03-01T12:10:02.414Z,22.70
2018-03-01T12:11:02.509Z,22.40
2018-03-01T12:12:02.581Z,23.10
2018-03-01T12:13:02.674Z,23.60
2018-03-01T12:14:02.752Z,23.00
2018-03-01T12:15:02.844Z,22.70
2018-03-01T12:16:02.932Z,22.90
2018-03-01T12:17:03.030Z,22.70
2018-03-01T12:18:03.101Z,22.70
2018-03-01T12:19:03.191Z,21.60
2018-03-01T12:20:03.276Z,22.80
2018-03-01T12:21:03.366Z,25.30
2018-03-01T12:22:03.496Z,22.50
2018-03-01T12:23:03.542Z,22.20
2018-03-01T12:24:03.636Z,22.30
2018-03-01T12:25:03.728Z,23.10
2018-03-01T12:26:03.814Z,22.50
2018-03-01T12:27:03.903Z,22.10
2018-03-01T12:28:03.996Z,23.30
2018-03-01T12:29:04.097Z,22.70
2018-03-01T12:30:04.180Z,23.00
2018-03-01T12:31:04.266Z,21.70
2018-03-01T12:32:04.352Z,22.80
2018-03-01T12:33:04.524Z,21.60
2018-03-01T12:34:04.571Z,21.70
2018-03-01T12:35:04.617Z,21.80
2018-03-01T12:36:04.723Z,22.50
2018-03-01T12:37:04.807Z,22.10
2018-03-01T12:38:04.909Z,21.70
2018-03-01T12:39:04.992Z,22.50
2018-03-01T12:40:05.081Z,22.50
2018-03-01T12:41:05.170Z,22.10
2018-03-01T12:42:05.252Z,22.80
2018-03-01T12:43:05.394Z,22.10
2018-03-01T12:44:05.434Z,22.00
2018-03-01T12:45:05.523Z,22.10
2018-03-01T12:46:05.629Z,22.70
2018-03-01T12:47:05.699Z,22.70
2018-03-01T12:48:05.797Z,22.80
2018-03-01T12:49:05.916Z,21.90
2018-03-01T12:50:05.977Z,22.20
2018-03-01T12:51:06.049Z,22.70
2018-03-01T12:52:06.192Z,22.10
2018-03-01T12:53:06.230Z,25.50
2018-03-01T12:54:07.314Z,23.00
2018-03-01T12:55:06.384Z,22.60
2018-03-01T12:56:06.475Z,21.40